createdAt,value
2019-03-30T00:04:00.000Z,99822
2019-03-30T00:09:00.000Z,99818
2019-03-30T00:14:00.000Z,99812
2019-03-30T00:19:00.000Z,99806
2019-03-30T00:24:00.000Z,99809
2019-03-30T00:29:00.000Z,99794
2019-03-30T00:34:00.000Z,99796
2019-03-30T00:39:00.000Z,99800
2019-03-30T00:44:00.000Z,99791
2019-03-30T00:49:00.000Z,99786
2019-03-30T00:54:00.000Z,99796
2019-03-30T00:59:00.000Z,99793
2019-03-30T01:04:00.000Z,99791
2019-03-30T01:09:00.000Z,99797
2019-03-30T01:14:00.000Z,99792
2019-03-30T01:19:00.000Z,99793
2019-03-30T01:25:00.000Z,99789
2019-03-30T01:30:00.000Z,99781
2019-03-30T01:35:00.000Z,99783
2019-03-30T01:40:00.000Z,99781
2019-03-30T01:45:00.000Z,99779
2019-03-30T01:50:00.000Z,99769
2019-03-30T01:55:00.000Z,99775
2019-03-30T02:00:00.000Z,99773
2019-03-30T02:05:00.000Z,99771
2019-03-30T02:10:00.000Z,99770
2019-03-30T02:15:00.000Z,99773
2019-03-30T02:20:00.000Z,99767
2019-03-30T02:25:00.000Z,99763
2019-03-30T02:30:00.000Z,99757
2019-03-30T02:35:00.000Z,99769
2019-03-30T02:40:00.000Z,99765
2019-03-30T02:45:00.000Z,99773
2019-03-30T02:50:00.000Z,99765
2019-03-30T02:55:00.000Z,99753
2019-03-30T03:00:00.000Z,99751
2019-03-30T03:05:00.000Z,99754
2019-03-30T03:10:00.000Z,99746
2019-03-30T03:15:00.000Z,99738
2019-03-30T03:20:00.000Z,99746
2019-03-30T03:26:00.000Z,99740
2019-03-30T03:31:00.000Z,99746
2019-03-30T03:36:00.000Z,99747
2019-03-30T03:41:00.000Z,99748
2019-03-30T03:46:00.000Z,99753
2019-03-30T03:51:00.000Z,99746
2019-03-30T03:56:00.000Z,99750
2019-03-30T04:01:00.000Z,99747
2019-03-30T04:06:00.000Z,99743
2019-03-30T04:11:00.000Z,99752
2019-03-30T04:16:00.000Z,99749
2019-03-30T04:21:00.000Z,99747
2019-03-30T04:26:00.000Z,99751
2019-03-30T04:31:00.000Z,99752
2019-03-30T04:36:00.000Z,99756
2019-03-30T04:41:00.000Z,99760
2019-03-30T04:46:00.000Z,99762
2019-03-30T04:51:00.000Z,99767
2019-03-30T04:56:00.000Z,99763
2019-03-30T05:01:00.000Z,99762
2019-03-30T05:07:00.000Z,99760
2019-03-30T05:12:00.000Z,99751
2019-03-30T05:17:00.000Z,99759
2019-03-30T05:22:00.000Z,99759
2019-03-30T05:27:00.000Z,99755
2019-03-30T05:32:00.000Z,99765
2019-03-30T05:37:00.000Z,99757
2019-03-30T05:42:00.000Z,99756
2019-03-30T05:47:00.000Z,99756
2019-03-30T05:52:00.000Z,99766
2019-03-30T05:57:00.000Z,99761
2019-03-30T06:02:00.000Z,99758
2019-03-30T06:07:00.000Z,99751
2019-03-30T06:12:00.000Z,99754
2019-03-30T06:17:00.000Z,99769
2019-03-30T06:22:00.000Z,99772
2019-03-30T06:27:00.000Z,99763
2019-03-30T06:32:00.000Z,99761
2019-03-30T06:37:00.000Z,99756
2019-03-30T06:42:00.000Z,99757
2019-03-30T06:47:00.000Z,99759
2019-03-30T06:52:00.000Z,99752
2019-03-30T06:57:00.000Z,99744
2019-03-30T07:02:00.000Z,99736
2019-03-30T07:08:00.000Z,99748
2019-03-30T07:13:00.000Z,99738
2019-03-30T07:18:00.000Z,99735
2019-03-30T07:23:00.000Z,99747
2019-03-30T07:28:00.000Z,99752
2019-03-30T07:33:00.000Z,99741
2019-03-30T07:38:00.000Z,99742
2019-03-30T07:43:00.000Z,99741
2019-03-30T07:48:00.000Z,99743
2019-03-30T07:53:00.000Z,99743
2019-03-30T07:58:00.000Z,99747
2019-03-30T08:03:00.000Z,99753
2019-03-30T08:08:00.000Z,99739
2019-03-30T08:13:00.000Z,99754
2019-03-30T08:18:00.000Z,99741
2019-03-30T08:23:00.000Z,99747
2019-03-30T08:28:00.000Z,99748
2019-03-30T08:33:00.000Z,99751
2019-03-30T08:38:00.000Z,99736
2019-03-30T08:43:00.000Z,99740
2019-03-30T08:48:00.000Z,99749
2019-03-30T08:53:00.000Z,99738
2019-03-30T08:58:00.000Z,99745
2019-03-30T09:03:00.000Z,99740
2019-03-30T09:08:00.000Z,99732
2019-03-30T09:13:00.000Z,99730
2019-03-30T09:18:00.000Z,99727
2019-03-30T09:23:00.000Z,99717
2019-03-30T09:29:00.000Z,99718
2019-03-30T09:34:00.000Z,99699
2019-03-30T09:39:00.000Z,99699
2019-03-30T09:44:00.000Z,99699
2019-03-30T09:49:00.000Z,99697
2019-03-30T09:54:00.000Z,99689
2019-03-30T09:59:00.000Z,99689
2019-03-30T10:04:00.000Z,99686
2019-03-30T10:09:00.000Z,99677
2019-03-30T10:14:00.000Z,99675
2019-03-30T10:19:00.000Z,99671
2019-03-30T10:24:00.000Z,99667
2019-03-30T10:29:00.000Z,99651
2019-03-30T10:34:00.000Z,99659
2019-03-30T10:39:00.000Z,99644
2019-03-30T10:44:00.000Z,99636
2019-03-30T10:49:00.000Z,99625
2019-03-30T10:54:00.000Z,99617
2019-03-30T10:59:00.000Z,99612
2019-03-30T11:04:00.000Z,99600
2019-03-30T11:09:00.000Z,99604
2019-03-30T11:14:00.000Z,99601
2019-03-30T11:19:00.000Z,99592
2019-03-30T11:24:00.000Z,99575
2019-03-30T11:30:00.000Z,99565
2019-03-30T11:35:00.000Z,99561
2019-03-30T11:40:00.000Z,99550
2019-03-30T11:45:00.000Z,99551
2019-03-30T11:50:00.000Z,99541
2019-03-30T11:55:00.000Z,99529
2019-03-30T12:00:00.000Z,99517
2019-03-30T12:05:00.000Z,99526
2019-03-30T12:10:00.000Z,99506
2019-03-30T12:15:00.000Z,99507
2019-03-30T12:20:00.000Z,99501
2019-03-30T12:25:00.000Z,99497
2019-03-30T12:30:00.000Z,99492
2019-03-30T12:35:00.000Z,99487
2019-03-30T12:40:00.000Z,99475
2019-03-30T12:45:00.000Z,99460
2019-03-30T12:50:00.000Z,99459
2019-03-30T12:55:00.000Z,99463
2019-03-30T13:02:00.000Z,99454
2019-03-30T13:07:00.000Z,99447
2019-03-30T13:12:00.000Z,99448
2019-03-30T13:17:00.000Z,99448
2019-03-30T13:22:00.000Z,99442
2019-03-30T13:27:00.000Z,99435
2019-03-30T13:32:00.000Z,99418
2019-03-30T13:37:00.000Z,99408
2019-03-30T13:42:00.000Z,99398
2019-03-30T13:47:00.000Z,99399
2019-03-30T13:52:00.000Z,99400
2019-03-30T13:57:00.000Z,99385
2019-03-30T14:02:00.000Z,99382
2019-03-30T14:07:00.000Z,99373
2019-03-30T14:13:00.000Z,99370
2019-03-30T14:18:00.000Z,99379
2019-03-30T14:23:00.000Z,99372
2019-03-30T14:28:00.000Z,99361
2019-03-30T14:33:00.000Z,99354
2019-03-30T14:38:00.000Z,99351
2019-03-30T14:43:00.000Z,99341
2019-03-30T14:48:00.000Z,99346
2019-03-30T14:53:00.000Z,99333
2019-03-30T14:58:00.000Z,99317
2019-03-30T15:03:00.000Z,99319
2019-03-30T15:08:00.000Z,99312
2019-03-30T15:13:00.000Z,99303
2019-03-30T15:18:00.000Z,99306
2019-03-30T15:23:00.000Z,99290
2019-03-30T15:28:00.000Z,99287
2019-03-30T15:33:00.000Z,99282
2019-03-30T15:38:00.000Z,99287
2019-03-30T15:43:00.000Z,99285
2019-03-30T15:48:00.000Z,99281
2019-03-30T15:53:00.000Z,99273
2019-03-30T15:58:00.000Z,99271
2019-03-30T16:03:00.000Z,99269
2019-03-30T16:08:00.000Z,99260
2019-03-30T16:13:00.000Z,99268
2019-03-30T16:18:00.000Z,99261
2019-03-30T16:23:00.000Z,99245
2019-03-30T16:28:00.000Z,99260
2019-03-30T16:33:00.000Z,99244
2019-03-30T16:38:00.000Z,99242
2019-03-30T16:43:00.000Z,99252
2019-03-30T16:48:00.000Z,99246
2019-03-30T16:53:00.000Z,99248
2019-03-30T16:58:00.000Z,99239
2019-03-30T17:03:00.000Z,99227
2019-03-30T17:08:00.000Z,99229
2019-03-30T17:13:00.000Z,99232
2019-03-30T17:18:00.000Z,99225
2019-03-30T17:23:00.000Z,99212
2019-03-30T17:28:00.000Z,99210
2019-03-30T17:33:00.000Z,99219
2019-03-30T17:38:00.000Z,99220
2019-03-30T17:43:00.000Z,99219
2019-03-30T17:48:00.000Z,99227
2019-03-30T17:53:00.000Z,99226
2019-03-30T17:58:00.000Z,99225
2019-03-30T18:03:00.000Z,99226
2019-03-30T18:08:00.000Z,99220
2019-03-30T18:13:00.000Z,99224
2019-03-30T18:18:00.000Z,99225
2019-03-30T18:23:00.000Z,99221
2019-03-30T18:28:00.000Z,99225
2019-03-30T18:33:00.000Z,99223
2019-03-30T18:38:00.000Z,99223
2019-03-30T18:43:00.000Z,99224
2019-03-30T18:48:00.000Z,99223
2019-03-30T18:53:00.000Z,99220
2019-03-30T18:58:00.000Z,99217
2019-03-30T19:03:00.000Z,99220
2019-03-30T19:08:00.000Z,99216
2019-03-30T19:13:00.000Z,99216
2019-03-30T19:18:00.000Z,99209
2019-03-30T19:23:00.000Z,99212
2019-03-30T19:28:00.000Z,99212
2019-03-30T19:33:00.000Z,99212
2019-03-30T19:38:00.000Z,99201
2019-03-30T19:44:00.000Z,99193
2019-03-30T19:49:00.000Z,99191
2019-03-30T19:54:00.000Z,99192
2019-03-30T19:59:00.000Z,99192
2019-03-30T20:04:00.000Z,99192
2019-03-30T20:09:00.000Z,99192
2019-03-30T20:14:00.000Z,99191
2019-03-30T20:19:00.000Z,99187
2019-03-30T20:24:00.000Z,99177
2019-03-30T20:29:00.000Z,99178
2019-03-30T20:34:00.000Z,99174
2019-03-30T20:39:00.000Z,99175
2019-03-30T20:44:00.000Z,99167
2019-03-30T20:49:00.000Z,99165
2019-03-30T20:54:00.000Z,99156
2019-03-30T20:59:00.000Z,99159
2019-03-30T21:04:00.000Z,99157
2019-03-30T21:09:00.000Z,99151
2019-03-30T21:14:00.000Z,99148
2019-03-30T21:19:00.000Z,99131
2019-03-30T21:24:00.000Z,99135
2019-03-30T21:29:00.000Z,99136
2019-03-30T21:34:00.000Z,99135
2019-03-30T21:39:00.000Z,99136
2019-03-30T21:44:00.000Z,99145
2019-03-30T21:49:00.000Z,99132
2019-03-30T21:54:00.000Z,99133
2019-03-30T21:59:00.000Z,99135
2019-03-30T22:05:00.000Z,99127
2019-03-30T22:10:00.000Z,99125
2019-03-30T22:15:00.000Z,99116
2019-03-30T22:20:00.000Z,99124
2019-03-30T22:25:00.000Z,99118
2019-03-30T22:30:00.000Z,99117
2019-03-30T22:35:00.000Z,99125
2019-03-30T22:40:00.000Z,99117
2019-03-30T22:45:00.000Z,99129
2019-03-30T22:50:00.000Z,99124
2019-03-30T22:55:00.000Z,99118
2019-03-30T23:00:00.000Z,99121
2019-03-30T23:05:00.000Z,99113
2019-03-30T23:10:00.000Z,99104
2019-03-30T23:15:00.000Z,99109
2019-03-30T23:20:00.000Z,99105
2019-03-30T23:25:00.000Z,99102
2019-03-30T23:30:00.000Z,99114
2019-03-30T23:35:00.000Z,99107
2019-03-30T23:40:00.000Z,99102
2019-03-30T23:45:00.000Z,99095
2019-03-30T23:50:00.000Z,99097
2019-03-30T23:55:00.000Z,99101
